Ft Sturla — IBXV — position and weather

sailwx.info

Track history (hours):
 
Tides and Currents Weather Stations Pressure Air Temp Water Temp Dewpoint Dewpoint Depression Visibility Wind Speed Wind Dir Waves Ship Positions

Ft Sturla

Last reported at 2017-Nov-16 19:35 UTC. Time now 2017-Nov-22 16:48 UTC.
Position N 37°33' W 000°59'.

Length 120 m; draft 7.2 m.

Type: Ship (hazmat cat D). MMSI: 247282200.

Date/timePositionNaut miles runAvg speedWind from/ knotsBaromVisibWave heightAir tempDewpointWater temp
2017-Nov-16 19:35N 37°33' W 000°59'2 8.2
2017-Nov-16 19:20N 37°31' W 000°58'410.1
2017-Nov-16 18:57N 37°31' W 000°53'510.5
2017-Nov-16 18:30N 37°32' W 000°47'510.5
2017-Nov-16 18:00N 37°32' W 000°41'510.5
2017-Nov-16 17:30N 37°34' W 000°35'510.8
2017-Nov-16 17:00N 37°38' W 000°30'510.8
2017-Nov-16 16:30N 37°43' W 000°27'  
2017-Nov-11 22:35N 41°03' E 001°35'110.0
2017-Nov-11 22:28N 41°03' E 001°37'4 9.9
2017-Nov-11 22:00N 41°04' E 001°43'5 9.7
2017-Nov-11 21:30N 41°04' E 001°49'510.0
2017-Nov-11 20:59N 41°05' E 001°56'510.2
2017-Nov-11 20:28N 41°06' E 002°03'  
2017-Nov-08 04:14N 41°18' E 002°11'  
Track history (hours):
 
Tides and Currents Weather Stations Pressure Air Temp Water Temp Dewpoint Dewpoint Depression Visibility Wind Speed Wind Dir Waves Ship Positions

Ft Sturla

Last reported at 2017-Nov-16 19:35 UTC. Time now 2017-Nov-22 16:48 UTC.
Position N 37°33' W 000°59'.

Length 120 m; draft 7.2 m.

Type: Ship (hazmat cat D). MMSI: 247282200.

Date/timePositionNaut miles runAvg speedWind from/ knotsBaromVisibWave heightAir tempDewpointWater temp
2017-Nov-16 19:35N 37°33' W 000°59'2 8.2
2017-Nov-16 19:20N 37°31' W 000°58'410.1
2017-Nov-16 18:57N 37°31' W 000°53'510.5
2017-Nov-16 18:30N 37°32' W 000°47'510.5
2017-Nov-16 18:00N 37°32' W 000°41'510.5
2017-Nov-16 17:30N 37°34' W 000°35'510.8
2017-Nov-16 17:00N 37°38' W 000°30'510.8
2017-Nov-16 16:30N 37°43' W 000°27'  
2017-Nov-11 22:35N 41°03' E 001°35'110.0
2017-Nov-11 22:28N 41°03' E 001°37'4 9.9
2017-Nov-11 22:00N 41°04' E 001°43'5 9.7
2017-Nov-11 21:30N 41°04' E 001°49'510.0
2017-Nov-11 20:59N 41°05' E 001°56'510.2
2017-Nov-11 20:28N 41°06' E 002°03'  
2017-Nov-08 04:14N 41°18' E 002°11'  

Dump ship's entire track history